Broadview Acres, New Mexico
Current Conditions -  °F | °C
As of 8:17 PM on Monday 20 Oct 2014 (Local Time) from KGNT Reporting Station
Clear Clear  
Wind Chill: 54°   Ceiling: Unl
Heat Index: 54°   Visibility: 10mi
Dew Point: 43°   Wind: 9mph
Humidity: 67%   Direction: 160°SSE
Pressure: 30.21"   Gusts: NA
Location:  35.2644°N, 107.733°W
Report Text: KGNT 210217Z AUTO 16008KT 10SM CLR 12/06 A3021 RMK AO2
Loading
Personal Weather Stations






























Interactive Weather Map
Tropical Storm Tracking
New forecast layout! Learn more

10-Day Weather Forecast

Advertisements
Track Severe Weather on mobile